Time;durP1;ratioP1;P1;durP2;ratioP2;P2;SDS_P1;SDS_P2;PMS_P1;PMS_P2;Temp;Humidity;BMP_temperature;BMP_pressure;BME280_temperature;BME280_humidity;BME280_pressure;Samples;Min_cycle;Max_cycle;Signal;HPM_P1;HPM_P2
2021/08/20 00:02:27;;;;;;;3.42;1.87;;;;;;;12.73;100.00;100245.16;2578104;55;20106;-80
2021/08/20 00:04:54;;;;;;;2.05;1.40;;;;;;;12.73;100.00;100258.56;2577755;55;20131;-80
2021/08/20 00:07:22;;;;;;;4.25;2.00;;;;;;;12.66;100.00;100251.06;2578042;55;20647;-79
2021/08/20 00:09:50;;;;;;;4.37;2.17;;;;;;;12.63;100.00;100246.00;2578080;55;20615;-80
2021/08/20 00:12:18;;;;;;;5.97;1.90;;;;;;;12.62;100.00;100246.12;2577944;55;20139;-73
2021/08/20 00:14:45;;;;;;;4.30;1.85;;;;;;;12.72;100.00;100249.66;2578006;55;20125;-73
2021/08/20 00:17:12;;;;;;;4.10;2.10;;;;;;;12.13;100.00;149737.88;2577944;55;20110;-80
2021/08/20 00:19:40;;;;;;;5.62;1.90;;;;;;;12.70;100.00;100256.12;2577847;55;20531;-80
2021/08/20 00:22:07;;;;;;;4.40;1.77;;;;;;;-147.45;100.00;60944.00;2577940;55;20596;-80
2021/08/20 00:24:36;;;;;;;6.40;1.70;;;;;;;-147.45;100.00;60944.00;2577968;55;20143;-74
2021/08/20 00:27:13;;;;;;;2.90;1.60;;;;;;;-147.45;100.00;60944.00;2577996;55;20529;-81
2021/08/20 00:29:40;;;;;;;3.12;1.52;;;;;;;12.76;100.00;100272.47;2577926;55;20495;-80
2021/08/20 00:32:08;;;;;;;3.87;1.50;;;;;;;-147.45;100.00;60944.00;2577973;55;20116;-73
2021/08/20 00:34:35;;;;;;;3.42;1.58;;;;;;;-147.45;100.00;60944.00;2577937;55;20636;-81
2021/08/20 00:37:03;;;;;;;4.20;1.85;;;;;;;-147.45;100.00;60944.00;2577925;55;20119;-80
2021/08/20 00:39:30;;;;;;;4.20;1.70;;;;;;;12.71;100.00;100274.75;2578061;55;20487;-73
2021/08/20 00:41:58;;;;;;;2.28;1.52;;;;;;;-147.45;100.00;60944.00;2577843;55;20105;-73
2021/08/20 00:44:25;;;;;;;3.58;1.35;;;;;;;12.70;100.00;100277.53;2577857;55;20119;-73
2021/08/20 00:46:52;;;;;;;3.08;1.58;;;;;;;12.59;100.00;100271.34;2577733;55;20132;-73
2021/08/20 00:49:19;;;;;;;3.55;1.90;;;;;;;12.55;100.00;100277.97;2572701;55;20139;-73
2021/08/20 00:51:48;;;;;;;3.53;2.03;;;;;;;-147.45;100.00;60944.00;2577814;55;20130;-73
2021/08/20 00:54:18;;;;;;;5.35;1.90;;;;;;;12.55;100.00;100272.62;2577861;55;20123;-81
2021/08/20 00:56:46;;;;;;;2.12;1.67;;;;;;;-147.45;100.00;60944.00;2577865;55;20125;-81
2021/08/20 00:59:14;;;;;;;7.72;2.05;;;;;;;12.45;100.00;100274.44;2577822;55;20113;-72
2021/08/20 01:01:42;;;;;;;6.07;1.73;;;;;;;12.43;100.00;60944.00;2577929;55;20114;-79
2021/08/20 01:04:10;;;;;;;2.75;1.92;;;;;;;12.45;100.00;100283.28;2577878;55;20118;-73
2021/08/20 01:06:39;;;;;;;3.90;1.62;;;;;;;12.45;100.00;100283.28;2577735;55;20156;-73
2021/08/20 01:09:08;;;;;;;3.12;1.60;;;;;;;-147.45;100.00;60944.00;2577726;55;20135;-73
2021/08/20 01:11:36;;;;;;;3.42;1.75;;;;;;;-147.45;100.00;60944.00;2577605;55;20125;-73
2021/08/20 01:14:04;;;;;;;5.55;1.95;;;;;;;-147.45;100.00;60944.00;2572709;55;20152;-81
2021/08/20 01:16:34;;;;;;;5.10;1.90;;;;;;;-147.45;100.00;60944.00;2577833;55;20121;-82
2021/08/20 01:19:01;;;;;;;4.97;1.98;;;;;;;-147.45;100.00;60944.00;2578653;55;20109;-73
2021/08/20 01:21:28;;;;;;;4.43;1.83;;;;;;;12.20;100.00;100281.97;2578780;55;20126;-80
2021/08/20 01:23:59;;;;;;;6.70;2.12;;;;;;;-147.45;100.00;60944.00;2578592;55;20117;-73
2021/08/20 01:26:28;;;;;;;4.97;1.80;;;;;;;-147.45;100.00;60944.00;2578570;55;20635;-81
2021/08/20 01:28:57;;;;;;;6.10;2.15;;;;;;;-147.45;100.00;60944.00;2578634;55;20135;-77
2021/08/20 01:31:24;;;;;;;2.75;1.70;;;;;;;-147.45;100.00;60944.00;2578640;55;20109;-80
2021/08/20 01:33:53;;;;;;;4.75;2.08;;;;;;;-147.45;100.00;60944.00;2578568;55;20624;-80
2021/08/20 01:36:20;;;;;;;5.00;1.92;;;;;;;12.14;100.00;100290.56;2578477;55;20489;-80
2021/08/20 01:38:50;;;;;;;3.97;2.00;;;;;;;-147.45;100.00;60944.00;2578610;55;20149;-73
2021/08/20 01:41:17;;;;;;;4.82;2.00;;;;;;;-147.45;100.00;60944.00;2578557;55;20112;-82
2021/08/20 01:43:46;;;;;;;3.40;1.65;;;;;;;-147.45;100.00;60944.00;2578587;55;20110;-72
2021/08/20 01:46:15;;;;;;;4.07;1.83;;;;;;;-147.45;100.00;60944.00;2578629;55;20132;-72
2021/08/20 01:48:47;;;;;;;4.72;1.70;;;;;;;-147.45;100.00;60944.00;2578607;55;20113;-81
2021/08/20 01:51:16;;;;;;;2.55;1.55;;;;;;;-147.45;100.00;60944.00;2578630;55;20110;-82
2021/08/20 01:53:46;;;;;;;4.37;1.90;;;;;;;-147.45;100.00;60944.00;2578573;55;20106;-80
2021/08/20 01:56:15;;;;;;;5.05;2.12;;;;;;;12.17;100.00;100295.63;2578522;55;20136;-72
2021/08/20 01:58:43;;;;;;;3.72;1.98;;;;;;;12.07;100.00;100295.59;2578433;55;20511;-81
2021/08/20 02:01:11;;;;;;;8.05;2.10;;;;;;;12.08;100.00;100298.13;2578502;55;20117;-80
2021/08/20 02:03:39;;;;;;;5.07;2.40;;;;;;;-147.45;0.00;60944.00;2578682;55;20131;-73
2021/08/20 02:06:08;;;;;;;5.75;1.87;;;;;;;12.03;100.00;60944.00;2578524;55;20134;-73
2021/08/20 02:08:37;;;;;;;5.95;2.15;;;;;;;-147.45;100.00;60944.00;2578520;55;20610;-81
2021/08/20 02:11:05;;;;;;;6.53;2.05;;;;;;;12.03;100.00;100287.00;2578513;55;20667;-80
2021/08/20 02:13:32;;;;;;;3.53;2.00;;;;;;;-147.45;100.00;60944.00;2578428;55;20171;-81
2021/08/20 02:16:01;;;;;;;6.78;2.10;;;;;;;-147.45;100.00;60944.00;2578507;55;20105;-72
2021/08/20 02:18:29;;;;;;;4.12;1.83;;;;;;;-147.45;100.00;79899.59;2578533;55;20121;-80
2021/08/20 02:20:59;;;;;;;6.60;2.60;;;;;;;-147.45;100.00;60944.00;2578433;55;20120;-72
2021/08/20 02:23:27;;;;;;;6.57;3.00;;;;;;;11.96;100.00;100308.03;2578305;55;20161;-79
2021/08/20 02:25:55;;;;;;;8.45;2.40;;;;;;;-147.45;100.00;60944.00;2578645;55;20655;-79
2021/08/20 02:28:22;;;;;;;4.93;2.53;;;;;;;-147.45;100.00;60944.00;2578308;55;20504;-80
2021/08/20 02:30:50;;;;;;;7.57;2.50;;;;;;;-147.45;100.00;60944.00;2578403;55;20122;-73
2021/08/20 02:33:18;;;;;;;5.43;2.45;;;;;;;-147.45;100.00;60944.00;2578246;55;20157;-78
2021/08/20 02:35:45;;;;;;;7.65;2.22;;;;;;;11.96;100.00;100308.03;2578456;55;20109;-73
2021/08/20 02:38:12;;;;;;;4.45;2.60;;;;;;;11.89;100.00;100319.41;2578438;55;20105;-72
2021/08/20 02:40:41;;;;;;;4.97;2.05;;;;;;;11.89;100.00;60944.00;2578611;55;20493;-73
2021/08/20 02:43:08;;;;;;;5.95;2.37;;;;;;;-147.45;100.00;60944.00;2578437;55;20109;-80
2021/08/20 02:45:36;;;;;;;7.12;2.72;;;;;;;-147.45;100.00;60944.00;2578402;55;20122;-81
2021/08/20 02:48:04;;;;;;;4.75;2.22;;;;;;;-147.45;100.00;60944.00;2578374;55;20385;-80
2021/08/20 02:50:32;;;;;;;5.60;2.30;;;;;;;-147.45;100.00;60944.00;2578247;55;20726;-72
2021/08/20 02:53:00;;;;;;;5.10;2.22;;;;;;;-147.45;100.00;60944.00;2578255;55;20144;-80
2021/08/20 02:55:28;;;;;;;8.25;2.60;;;;;;;-147.45;100.00;60944.00;2578348;55;20133;-79
2021/08/20 02:57:55;;;;;;;9.68;1.90;;;;;;;12.04;100.00;79900.94;2578303;55;20127;-81
2021/08/20 03:00:25;;;;;;;10.82;3.17;;;;;;;-147.45;100.00;60944.00;2578422;55;20627;-72
2021/08/20 03:02:55;;;;;;;5.15;1.90;;;;;;;-147.45;100.00;60944.00;2578210;55;20700;-73
2021/08/20 03:05:24;;;;;;;9.13;2.30;;;;;;;-147.45;100.00;60944.00;2578200;55;20160;-80
2021/08/20 03:08:03;;;;;;;3.47;2.15;;;;;;;-147.45;100.00;60944.00;2578274;55;20119;-80
2021/08/20 03:10:31;;;;;;;6.22;2.35;;;;;;;-147.45;100.00;60944.00;2578208;55;20109;-72
2021/08/20 03:12:58;;;;;;;5.20;2.62;;;;;;;12.19;100.00;108917.06;2578040;55;20164;-81
2021/08/20 03:15:26;;;;;;;5.37;2.20;;;;;;;12.20;100.00;100330.12;2578195;55;20659;-81
2021/08/20 03:17:57;;;;;;;6.87;3.05;;;;;;;-147.45;100.00;60944.00;2578186;55;20168;-81
2021/08/20 03:20:24;;;;;;;9.40;2.92;;;;;;;12.18;100.00;100332.94;2578302;55;20119;-77
2021/08/20 03:23:01;;;;;;;7.22;2.60;;;;;;;0.01;0.00;59042.03;2583066;47;20105;-73
2021/08/20 03:25:38;;;;;;;7.15;2.45;;;;;;;;;;2582748;47;20105;-81
2021/08/20 03:28:18;;;;;;;7.50;2.37;;;;;;;;;;2588651;47;20570;-80
2021/08/20 03:30:56;;;;;;;5.68;2.55;;;;;;;;;;2589478;47;20506;-80
2021/08/20 03:33:33;;;;;;;5.25;2.45;;;;;;;;;;2587749;47;20105;-72
2021/08/20 03:36:11;;;;;;;9.10;2.33;;;;;;;;;;2589110;47;20116;-81
2021/08/20 03:38:50;;;;;;;5.78;2.30;;;;;;;-147.45;100.00;60944.00;2584082;47;20116;-81
2021/08/20 03:41:27;;;;;;;8.98;2.95;;;;;;;;;;2583214;47;20105;-81
2021/08/20 03:44:06;;;;;;;7.43;3.20;;;;;;;0.00;0.00;30000.00;2583978;47;20101;-80
2021/08/20 03:46:44;;;;;;;4.97;2.37;;;;;;;12.93;100.00;100343.25;2589375;47;20111;-71
2021/08/20 03:49:22;;;;;;;9.15;2.75;;;;;;;13.10;100.00;100353.38;2585613;47;20109;-73
2021/08/20 03:51:58;;;;;;;7.35;2.83;;;;;;;-147.45;100.00;60944.00;2583973;47;20753;-71
2021/08/20 03:54:39;;;;;;;6.15;2.08;;;;;;;;;;2580273;47;20117;-80
2021/08/20 03:57:18;;;;;;;3.75;2.08;;;;;;;13.50;100.00;100363.13;2587997;47;20135;-79
2021/08/20 03:59:57;;;;;;;9.10;2.80;;;;;;;13.45;100.00;100368.91;2584009;47;20132;-80
2021/08/20 04:02:34;;;;;;;5.35;1.83;;;;;;;-147.45;100.00;60944.00;2589244;47;20519;-80
2021/08/20 04:05:12;;;;;;;4.62;2.00;;;;;;;13.55;100.00;100368.03;2584524;47;20528;-80
2021/08/20 04:07:50;;;;;;;5.25;2.10;;;;;;;;;;2584479;47;20108;-73
2021/08/20 04:10:28;;;;;;;8.48;2.42;;;;;;;;;;2584156;47;20105;-80
2021/08/20 04:13:05;;;;;;;4.93;2.33;;;;;;;;;;2589048;47;20604;-73
2021/08/20 04:15:41;;;;;;;5.45;1.98;;;;;;;13.46;100.00;100369.72;2589546;47;20120;-74
2021/08/20 04:18:19;;;;;;;4.43;2.00;;;;;;;-147.45;100.00;60944.00;2583941;47;20123;-80
2021/08/20 04:20:56;;;;;;;5.03;1.83;;;;;;;;;;2588502;47;20109;-79
2021/08/20 04:23:32;;;;;;;4.97;2.25;;;;;;;;;;2583685;47;20531;-78
2021/08/20 04:26:11;;;;;;;4.50;1.70;;;;;;;13.90;100.00;100371.91;2589186;47;20115;-73
2021/08/20 04:28:50;;;;;;;6.47;2.17;;;;;;;-147.45;100.00;60944.00;2587309;47;20116;-71
2021/08/20 04:31:27;;;;;;;5.75;2.22;;;;;;;;;;2589177;47;20112;-79
2021/08/20 04:34:06;;;;;;;3.60;1.80;;;;;;;;;;2586516;47;20106;-82
2021/08/20 04:36:44;;;;;;;5.68;1.73;;;;;;;;;;2588243;47;20110;-73
2021/08/20 04:39:23;;;;;;;8.73;2.30;;;;;;;;;;2585107;47;20104;-81
2021/08/20 04:42:01;;;;;;;3.70;2.10;;;;;;;14.33;100.00;100370.50;2589376;47;20127;-73
2021/08/20 04:44:39;;;;;;;3.72;2.10;;;;;;;;;;2585547;47;20113;-80
2021/08/20 04:47:17;;;;;;;4.15;1.75;;;;;;;-147.45;100.00;60944.00;2589450;47;20124;-81
2021/08/20 04:49:55;;;;;;;3.95;1.98;;;;;;;14.38;100.00;100382.59;2584103;47;20128;-81
2021/08/20 04:52:34;;;;;;;3.47;1.90;;;;;;;-147.45;100.00;60944.00;2589557;47;20127;-73
2021/08/20 04:55:12;;;;;;;4.82;1.70;;;;;;;14.37;100.00;100394.34;2583387;47;20144;-73
2021/08/20 04:57:48;;;;;;;2.58;1.73;;;;;;;14.31;100.00;100401.12;2589223;47;20652;-73
2021/08/20 05:00:25;;;;;;;6.35;1.98;;;;;;;14.36;nan;70554.03;2587500;47;20113;-78
2021/08/20 05:03:04;;;;;;;6.60;2.20;;;;;;;;;;2586488;47;20618;-73
2021/08/20 05:05:41;;;;;;;2.70;1.52;;;;;;;14.32;100.00;100406.34;2581026;47;20123;-77
2021/08/20 05:08:19;;;;;;;5.47;1.60;;;;;;;;;;2581774;47;20659;-80
2021/08/20 05:10:55;;;;;;;7.07;2.03;;;;;;;;;;2583236;47;20116;-81
2021/08/20 05:13:32;;;;;;;3.75;1.77;;;;;;;14.37;100.00;100405.06;2587197;47;20523;-73
2021/08/20 05:16:10;;;;;;;4.25;2.03;;;;;;;;;;2589381;47;20101;-80
2021/08/20 05:18:46;;;;;;;5.65;2.08;;;;;;;;;;2586457;47;20538;-73
2021/08/20 05:21:23;;;;;;;4.43;1.80;;;;;;;;;;2589288;47;20112;-80
2021/08/20 05:23:59;;;;;;;4.12;2.17;;;;;;;;;;2587162;47;20109;-80
2021/08/20 05:26:36;;;;;;;7.43;2.05;;;;;;;;;;2588286;47;20109;-78
2021/08/20 05:29:13;;;;;;;6.20;2.60;;;;;;;14.31;100.00;100433.34;2585331;47;20649;-80
2021/08/20 05:31:49;;;;;;;6.22;1.92;;;;;;;;;;2587005;47;20530;-80
2021/08/20 05:34:26;;;;;;;6.47;2.20;;;;;;;;;;2582145;47;20117;-73
2021/08/20 05:37:04;;;;;;;2.70;1.70;;;;;;;;;;2585193;47;20108;-74
2021/08/20 05:39:40;;;;;;;5.35;2.00;;;;;;;;;;2582638;47;20106;-73
2021/08/20 05:42:17;;;;;;;11.43;2.08;;;;;;;;;;2586561;47;20124;-73
2021/08/20 05:44:53;;;;;;;4.18;2.10;;;;;;;;;;2582940;47;20113;-73
2021/08/20 05:47:30;;;;;;;4.55;2.00;;;;;;;;;;2586671;47;20517;-71
2021/08/20 05:50:08;;;;;;;4.72;2.15;;;;;;;;;;2581976;47;20097;-73
2021/08/20 05:52:44;;;;;;;5.32;2.10;;;;;;;;;;2588066;47;20124;-73
2021/08/20 05:55:21;;;;;;;7.15;2.72;;;;;;;;;;2584086;47;20122;-80
2021/08/20 05:57:58;;;;;;;5.40;1.87;;;;;;;;;;2585749;47;20110;-71
2021/08/20 06:00:35;;;;;;;4.07;2.25;;;;;;;-147.45;100.00;60944.00;2586915;47;20128;-81
2021/08/20 06:03:20;;;;;;;5.80;1.95;;;;;;;15.02;100.00;100431.00;2586446;47;20128;-82
2021/08/20 06:05:58;;;;;;;5.68;2.50;;;;;;;14.91;100.00;100444.66;2580064;47;20458;-72
2021/08/20 06:08:36;;;;;;;12.07;2.30;;;;;;;;;;2579394;47;20145;-73
2021/08/20 06:11:13;;;;;;;6.55;1.90;;;;;;;15.04;100.00;100461.28;2580182;47;20131;-72
2021/08/20 06:13:49;;;;;;;4.45;1.77;;;;;;;;;;2585436;47;20116;-69
2021/08/20 06:16:26;;;;;;;6.15;1.75;;;;;;;15.50;100.00;100476.50;2584975;47;20116;-71
2021/08/20 06:19:04;;;;;;;10.40;2.08;;;;;;;;;;2585807;47;20108;-71
2021/08/20 06:21:40;;;;;;;2.33;1.87;;;;;;;;;;2581632;47;20105;-71
2021/08/20 06:24:17;;;;;;;3.05;1.62;;;;;;;;;;2579395;47;20160;-75
2021/08/20 06:26:54;;;;;;;4.45;1.65;;;;;;;-147.45;100.00;60944.00;2585752;47;20128;-73
2021/08/20 06:29:30;;;;;;;5.05;1.67;;;;;;;17.10;94.57;100482.56;2581742;47;20132;-70
2021/08/20 06:32:09;;;;;;;4.70;1.45;;;;;;;17.13;93.30;100477.84;2585954;47;20127;-70
2021/08/20 06:34:52;;;;;;;3.37;1.45;;;;;;;;;;2582461;47;20117;-70
2021/08/20 06:37:29;;;;;;;18.35;2.50;;;;;;;-147.45;100.00;60944.00;2587247;47;20127;-70
2021/08/20 06:40:06;;;;;;;7.57;1.98;;;;;;;;;;2577253;47;20125;-77
2021/08/20 06:42:44;;;;;;;8.05;1.48;;;;;;;-147.45;100.00;60944.00;2586382;47;20127;-70
2021/08/20 06:45:21;;;;;;;3.35;1.58;;;;;;;18.34;85.89;100480.97;2576768;47;20136;-70
2021/08/20 06:47:59;;;;;;;5.72;1.50;;;;;;;18.72;85.14;100473.03;2581709;47;20120;-68
2021/08/20 06:50:35;;;;;;;4.82;1.77;;;;;;;19.05;82.54;100494.56;2582028;47;20127;-68
2021/08/20 06:53:12;;;;;;;3.92;2.03;;;;;;;-65.85;0.00;92159.38;2587741;47;20127;-75
2021/08/20 06:55:51;;;;;;;7.10;1.42;;;;;;;17.94;82.63;100492.47;2588431;47;20136;-70
2021/08/20 06:58:28;;;;;;;18.12;2.10;;;;;;;17.86;87.49;100484.37;2582411;47;20135;-70
2021/08/20 07:01:04;;;;;;;9.45;1.87;;;;;;;18.13;85.54;100485.03;2587976;47;20135;-74
2021/08/20 07:03:41;;;;;;;4.55;1.70;;;;;;;18.33;83.36;100490.06;2587508;47;20111;-70
2021/08/20 07:06:22;;;;;;;3.67;1.70;;;;;;;18.53;80.90;100490.53;2588390;47;20139;-69
2021/08/20 07:08:59;;;;;;;6.18;1.50;;;;;;;18.67;82.40;100480.00;2583973;47;20123;-76
2021/08/20 07:11:35;;;;;;;1.83;1.20;;;;;;;18.93;80.16;100487.81;2589198;47;20519;-70
2021/08/20 07:14:12;;;;;;;7.70;1.87;;;;;;;19.13;80.42;100490.12;2585529;47;20119;-70
2021/08/20 07:16:48;;;;;;;4.07;1.62;;;;;;;19.29;81.28;100487.31;2589441;47;20389;-68
2021/08/20 07:19:25;;;;;;;5.18;2.00;;;;;;;18.86;78.43;100490.38;2586356;47;20125;-70
2021/08/20 07:22:01;;;;;;;5.18;1.90;;;;;;;;;;2588189;47;20113;-71
2021/08/20 07:24:58;;;;;;;2.28;1.50;;;;;;;;;;2584679;47;20109;-77
2021/08/20 07:27:38;;;;;;;3.30;1.90;;;;;;;;;;2589282;47;20516;-75
2021/08/20 07:30:15;;;;;;;4.40;1.98;;;;;;;18.97;80.76;100488.31;2584472;47;20139;-70
2021/08/20 07:32:53;;;;;;;3.35;1.92;;;;;;;;;;2589282;47;20097;-69
2021/08/20 07:35:30;;;;;;;10.90;2.92;;;;;;;18.87;81.18;100496.66;2589075;47;20515;-70
2021/08/20 07:38:06;;;;;;;3.25;1.62;;;;;;;19.30;79.00;100491.72;2589113;47;20123;-77
2021/08/20 07:40:43;;;;;;;4.35;1.60;;;;;;;19.61;78.57;100498.94;2588551;47;20123;-70
2021/08/20 07:43:19;;;;;;;4.82;1.75;;;;;;;19.57;76.69;100492.22;2583996;47;20685;-75
2021/08/20 07:45:56;;;;;;;3.67;1.70;;;;;;;19.57;75.37;100496.78;2588205;47;20123;-75
2021/08/20 07:48:34;;;;;;;4.12;1.50;;;;;;;19.54;75.50;100506.13;2586815;47;20112;-70
2021/08/20 07:51:10;;;;;;;5.07;1.60;;;;;;;19.58;74.50;100510.12;2589487;47;20119;-77
2021/08/20 07:53:47;;;;;;;6.45;2.28;;;;;;;-65.23;0.00;130944.00;2586373;47;20741;-75
2021/08/20 07:56:25;;;;;;;3.78;1.65;;;;;;;;;;2584221;47;20542;-69
2021/08/20 07:59:01;;;;;;;5.95;1.98;;;;;;;18.93;77.83;100509.44;2581472;47;20131;-68
2021/08/20 08:01:38;;;;;;;2.95;1.70;;;;;;;18.67;78.66;100509.72;2584378;47;20128;-68
2021/08/20 08:04:15;;;;;;;6.53;1.73;;;;;;;18.92;79.33;100510.47;2586554;47;20539;-77
2021/08/20 08:06:51;;;;;;;8.20;1.95;;;;;;;19.27;76.09;100513.72;2583939;47;20124;-75
2021/08/20 08:09:28;;;;;;;5.40;1.58;;;;;;;19.52;75.36;100510.84;2586151;47;20116;-75
2021/08/20 08:12:05;;;;;;;3.08;1.30;;;;;;;-20.11;100.00;60944.00;2589126;47;20645;-75
2021/08/20 08:14:42;;;;;;;3.70;1.33;;;;;;;20.09;72.79;100533.09;2584321;47;20116;-68
2021/08/20 08:17:18;;;;;;;9.32;1.52;;;;;;;;;;2589471;47;20117;-77
2021/08/20 08:19:55;;;;;;;3.35;1.50;;;;;;;20.45;70.51;100523.44;2584107;47;20131;-76
2021/08/20 08:22:32;;;;;;;9.23;1.45;;;;;;;20.40;70.27;100529.41;2583629;47;20638;-69
2021/08/20 08:25:10;;;;;;;8.10;2.53;;;;;;;;;;2579712;47;20117;-69
2021/08/20 08:27:50;;;;;;;3.72;1.48;;;;;;;20.06;71.62;100522.66;2583956;47;20127;-77
2021/08/20 08:30:35;;;;;;;3.33;1.30;;;;;;;20.18;70.22;100520.31;2583400;47;20132;-73
2021/08/20 08:33:12;;;;;;;3.35;1.02;;;;;;;20.10;69.09;100534.78;2587748;47;20649;-75
2021/08/20 08:35:48;;;;;;;4.85;1.40;;;;;;;;;;2589157;47;20101;-78
2021/08/20 08:38:25;;;;;;;5.10;1.83;;;;;;;19.54;71.02;100524.19;2588408;47;20108;-76
2021/08/20 08:41:03;;;;;;;3.65;1.30;;;;;;;19.67;71.59;100518.19;2589790;47;20131;-73
2021/08/20 08:43:41;;;;;;;4.60;1.50;;;;;;;19.47;73.25;100510.53;2586935;47;20108;-75
2021/08/20 08:46:22;;;;;;;2.30;1.50;;;;;;;19.75;72.04;100520.84;2588294;47;20115;-70
2021/08/20 08:48:59;;;;;;;6.35;2.00;;;;;;;-147.45;100.00;60944.00;2583550;47;20641;-75
2021/08/20 08:51:36;;;;;;;2.50;1.12;;;;;;;19.77;68.05;100534.16;2588843;47;20115;-75
2021/08/20 08:54:13;;;;;;;11.55;2.22;;;;;;;19.41;70.91;100532.91;2579552;47;20116;-75
2021/08/20 08:56:50;;;;;;;3.80;1.55;;;;;;;19.23;73.07;100544.00;2588406;47;20120;-71
2021/08/20 08:59:27;;;;;;;4.07;1.30;;;;;;;18.91;73.21;100535.81;2584227;47;20120;-70
2021/08/20 09:02:21;;;;;;;7.05;1.67;;;;;;;18.88;74.32;100531.59;2589427;47;20119;-75
2021/08/20 09:05:00;;;;;;;4.35;1.80;;;;;;;18.71;75.03;100557.81;2584823;47;20124;-77
2021/08/20 09:07:38;;;;;;;2.95;1.17;;;;;;;19.02;74.07;100543.56;2584173;47;20123;-68
2021/08/20 09:10:18;;;;;;;3.17;1.25;;;;;;;19.20;72.01;100545.19;2584386;47;20124;-71
2021/08/20 09:12:57;;;;;;;2.85;1.80;;;;;;;18.91;72.64;100536.66;2584071;47;20119;-71
2021/08/20 09:15:35;;;;;;;4.15;1.60;;;;;;;18.92;74.25;100557.28;2583496;47;20633;-70
2021/08/20 09:18:20;;;;;;;7.90;2.08;;;;;;;18.83;78.27;100557.44;2584122;47;20135;-71
2021/08/20 09:20:58;;;;;;;5.85;1.75;;;;;;;-131.54;100.00;60944.00;2582646;47;20417;-75
2021/08/20 09:23:34;;;;;;;5.55;2.05;;;;;;;19.00;75.23;100559.13;2587920;47;20112;-70
2021/08/20 09:26:22;;;;;;;11.30;1.98;;;;;;;;;;2583992;47;20104;-73
2021/08/20 09:29:11;;;;;;;2.62;1.60;;;;;;;18.81;76.08;100556.78;2586975;47;20131;-71
2021/08/20 09:31:52;;;;;;;2.22;1.17;;;;;;;19.00;75.49;100559.13;2584004;47;20147;-74
2021/08/20 09:34:29;;;;;;;3.95;1.77;;;;;;;;;;2585707;47;20097;-71
2021/08/20 09:37:13;;;;;;;3.42;1.60;;;;;;;20.13;67.42;100536.28;2589116;47;20119;-76
2021/08/20 09:39:56;;;;;;;4.18;1.30;;;;;;;20.18;66.43;100549.28;2584058;47;20127;-76
2021/08/20 09:42:35;;;;;;;12.07;2.15;;;;;;;19.84;66.06;100545.97;2582223;47;20128;-69
2021/08/20 09:45:18;;;;;;;7.43;1.90;;;;;;;19.52;69.56;100559.53;2582828;47;20542;-68
2021/08/20 09:47:56;;;;;;;4.03;1.80;;;;;;;19.53;69.30;100561.22;2586844;47;20123;-71
2021/08/20 09:50:41;;;;;;;6.03;1.75;;;;;;;19.87;71.53;100561.84;2579506;47;20123;-70
2021/08/20 09:53:18;;;;;;;6.22;2.05;;;;;;;20.40;66.33;100566.53;2586441;47;20116;-78
2021/08/20 09:55:55;;;;;;;1.50;1.15;;;;;;;20.67;65.08;100567.75;2588422;47;20108;-71
2021/08/20 09:58:34;;;;;;;4.47;1.73;;;;;;;20.85;61.10;100583.69;2582827;47;20140;-76
2021/08/20 10:01:11;;;;;;;3.30;1.23;;;;;;;-147.45;100.00;60944.00;2589345;47;20115;-68
2021/08/20 10:03:49;;;;;;;2.40;1.48;;;;;;;20.24;63.50;100589.16;2584069;47;20128;-70
2021/08/20 10:06:26;;;;;;;3.03;1.20;;;;;;;;;;2583925;47;20109;-75
2021/08/20 10:09:06;;;;;;;3.85;1.30;;;;;;;19.81;66.42;153736.34;2585971;47;20120;-76
2021/08/20 10:11:48;;;;;;;6.87;1.95;;;;;;;-147.45;100.00;60944.00;2589044;47;20119;-71
2021/08/20 10:14:27;;;;;;;2.80;1.60;;;;;;;-147.45;100.00;60944.00;2584285;47;20123;-68
2021/08/20 10:16:54;;;;;;;4.07;1.33;;;;;;;19.20;71.09;100618.19;2582363;55;20674;-75
2021/08/20 10:19:22;;;;;;;4.93;1.20;;;;;;;19.03;71.26;100617.41;2582440;55;20665;-76
2021/08/20 10:21:49;;;;;;;5.65;1.40;;;;;;;19.01;70.96;100622.16;2582236;55;20507;-75
2021/08/20 10:24:16;;;;;;;4.35;1.50;;;;;;;19.40;70.64;100620.47;2582396;55;20829;-69
2021/08/20 10:26:47;;;;;;;4.25;1.40;;;;;;;19.75;67.75;100612.84;2582377;55;20121;-69
2021/08/20 10:29:15;;;;;;;2.63;1.37;;;;;;;19.98;68.11;100620.19;2582321;55;20113;-76
2021/08/20 10:31:44;;;;;;;5.75;1.50;;;;;;;20.22;68.99;100612.88;2582400;55;20497;-76
2021/08/20 10:34:39;;;;;;;19.55;2.03;;;;;;;20.52;66.38;100626.50;2582169;55;20117;-69
2021/08/20 10:37:10;;;;;;;4.40;1.33;;;;;;;20.11;63.66;100617.69;2569431;55;20132;-76
2021/08/20 10:39:39;;;;;;;1.55;1.15;;;;;;;20.05;66.26;100628.41;2582317;55;20149;-69
2021/08/20 10:42:08;;;;;;;2.28;1.33;;;;;;;20.37;62.63;100632.75;2582347;55;20109;-69
2021/08/20 10:44:47;;;;;;;4.32;1.80;;;;;;;20.33;62.74;100620.56;2584289;47;20135;-76
2021/08/20 10:47:26;;;;;;;7.50;1.40;;;;;;;-0.01;0.00;126687.59;2589078;47;20108;-77
2021/08/20 10:50:10;;;;;;;4.32;1.45;;;;;;;19.92;64.11;100628.97;2584865;47;20123;-77
2021/08/20 10:52:49;;;;;;;5.68;1.65;;;;;;;19.92;68.12;100639.81;2589718;47;20127;-76
2021/08/20 10:55:28;;;;;;;3.75;1.10;;;;;;;20.19;62.56;100624.09;2583864;47;20131;-69
2021/08/20 10:58:13;;;;;;;9.80;1.90;;;;;;;20.01;62.99;100639.63;2587921;47;20551;-69
2021/08/20 11:00:55;;;;;;;18.35;2.15;;;;;;;19.88;65.16;100644.72;2589436;47;20123;-76
2021/08/20 11:03:45;;;;;;;6.85;1.50;;;;;;;19.75;65.24;100646.16;2584087;47;20116;-70
2021/08/20 11:06:51;;;;;;;6.25;1.58;;;;;;;19.55;64.76;100658.44;2588461;47;20123;-68
2021/08/20 11:09:32;;;;;;;3.72;1.55;;;;;;;19.42;66.68;100648.19;2584976;47;20111;-69
2021/08/20 11:12:09;;;;;;;3.65;1.50;;;;;;;19.02;66.45;100651.69;2584137;47;20136;-69
2021/08/20 11:14:47;;;;;;;4.15;1.05;;;;;;;-147.45;100.00;91329.41;2583725;47;20127;-69
2021/08/20 11:17:47;;;;;;;5.62;1.33;;;;;;;19.64;67.59;100651.97;2589403;47;20127;-73
2021/08/20 11:20:25;;;;;;;4.43;1.65;;;;;;;19.89;64.50;100652.69;2584455;47;20119;-76
2021/08/20 11:23:16;;;;;;;2.92;1.30;;;;;;;20.10;65.37;100642.28;2582494;55;20615;-68
2021/08/20 11:25:56;;;;;;;3.58;1.60;;;;;;;20.38;64.13;100639.84;2588306;47;20551;-76
2021/08/20 11:28:39;;;;;;;3.17;1.40;;;;;;;20.40;61.93;100647.78;2587220;47;20112;-70
2021/08/20 11:31:16;;;;;;;3.53;1.48;;;;;;;20.15;63.00;100648.81;2589498;47;20131;-75
2021/08/20 11:33:46;;;;;;;4.68;1.48;;;;;;;19.60;65.03;100664.19;2580455;55;20117;-77
2021/08/20 11:36:17;;;;;;;2.45;1.40;;;;;;;19.10;66.83;100660.81;2577125;55;20118;-77
2021/08/20 11:38:46;;;;;;;1.90;1.10;;;;;;;18.99;69.40;100660.13;2577194;55;20126;-72
2021/08/20 11:41:20;;;;;;;2.92;1.15;;;;;;;19.25;68.69;100655.53;2577250;55;20118;-70
2021/08/20 11:43:49;;;;;;;5.40;1.45;;;;;;;19.78;67.05;100644.13;2577198;55;20638;-70
2021/08/20 11:46:17;;;;;;;3.30;1.20;;;;;;;20.01;65.15;100640.44;2577135;55;20120;-76
2021/08/20 11:48:46;;;;;;;5.03;1.85;;;;;;;19.94;65.66;100624.25;2577103;55;20110;-77
2021/08/20 11:51:22;;;;;;;6.32;1.92;;;;;;;19.94;65.66;100624.25;2576870;55;20117;-77
2021/08/20 11:53:49;;;;;;;4.55;1.50;;;;;;;20.07;65.28;100648.88;2576982;55;20119;-69
2021/08/20 11:56:17;;;;;;;3.75;1.25;;;;;;;20.04;61.90;100634.84;2577089;55;20122;-77
2021/08/20 11:58:45;;;;;;;2.20;1.10;;;;;;;20.15;59.92;100624.47;2576812;55;20105;-77
2021/08/20 12:01:12;;;;;;;3.33;1.27;;;;;;;20.34;61.76;100640.37;2576870;55;20674;-70
2021/08/20 12:03:48;;;;;;;4.07;1.80;;;;;;;20.51;62.48;100638.38;2577038;55;20125;-70
2021/08/20 12:06:16;;;;;;;4.12;1.35;;;;;;;20.58;63.71;100633.91;2577072;55;20119;-77
2021/08/20 12:08:44;;;;;;;2.45;1.25;;;;;;;20.90;61.26;100634.63;2577064;55;20116;-78
2021/08/20 12:11:12;;;;;;;4.00;1.40;;;;;;;21.13;62.37;100625.56;2576823;55;20111;-76
2021/08/20 12:13:44;;;;;;;3.90;1.20;;;;;;;21.06;58.12;100630.06;2577109;55;20114;-77
2021/08/20 12:16:12;;;;;;;3.42;1.60;;;;;;;20.98;60.17;100631.84;2577137;55;20113;-77
2021/08/20 12:18:43;;;;;;;5.05;1.23;;;;;;;20.94;58.12;100641.34;2576741;55;20121;-76
2021/08/20 12:21:16;;;;;;;3.47;1.25;;;;;;;20.96;59.59;100641.19;2577002;55;20133;-77
2021/08/20 12:23:57;;;;;;;2.30;0.98;;;;;;;21.04;60.68;100642.94;2577073;55;20647;-76
2021/08/20 12:26:24;;;;;;;4.20;1.50;;;;;;;20.90;60.99;100637.34;2577130;55;20699;-77